createdAt,value
2019-06-20T00:00:24.762Z,0.00
2019-06-20T00:01:24.821Z,0.00
2019-06-20T00:02:24.891Z,0.00
2019-06-20T00:03:24.894Z,0.00
2019-06-20T00:04:24.940Z,0.00
2019-06-20T00:05:24.972Z,0.00
2019-06-20T00:06:25.020Z,0.00
2019-06-20T00:07:25.069Z,0.00
2019-06-20T00:08:25.126Z,0.00
2019-06-20T00:09:25.163Z,0.00
2019-06-20T00:10:25.189Z,0.00
2019-06-20T00:11:25.291Z,0.00
2019-06-20T00:12:25.300Z,0.00
2019-06-20T00:13:25.354Z,0.00
2019-06-20T00:14:25.376Z,0.00
2019-06-20T00:15:25.435Z,0.00
2019-06-20T00:16:25.475Z,0.00
2019-06-20T00:17:25.520Z,0.00
2019-06-20T00:18:25.560Z,0.00
2019-06-20T00:19:25.619Z,0.00
2019-06-20T00:20:25.645Z,0.00
2019-06-20T00:21:25.686Z,0.00
2019-06-20T00:22:25.752Z,0.00
2019-06-20T00:23:25.778Z,0.00
2019-06-20T00:24:25.801Z,0.00
2019-06-20T00:25:25.882Z,0.00
2019-06-20T00:26:25.910Z,0.00
2019-06-20T00:27:25.944Z,0.00
2019-06-20T00:28:25.984Z,0.00
2019-06-20T00:29:26.049Z,0.00
2019-06-20T00:30:26.089Z,0.00
2019-06-20T00:31:26.128Z,0.00
2019-06-20T00:32:26.189Z,0.00
2019-06-20T00:33:26.236Z,0.00
2019-06-20T00:34:26.274Z,0.00
2019-06-20T00:35:26.327Z,0.00
2019-06-20T00:36:26.363Z,0.00
2019-06-20T00:37:26.400Z,0.00
2019-06-20T00:38:26.442Z,0.00
2019-06-20T00:39:26.483Z,0.00
2019-06-20T00:40:26.534Z,0.00
2019-06-20T00:41:26.605Z,0.00
2019-06-20T00:42:26.622Z,0.00
2019-06-20T00:43:26.663Z,0.00
2019-06-20T00:44:26.684Z,0.00
2019-06-20T00:45:26.767Z,0.00
2019-06-20T00:46:26.783Z,0.00
2019-06-20T00:47:26.838Z,0.00
2019-06-20T00:48:26.892Z,0.00
2019-06-20T00:49:26.912Z,0.00
2019-06-20T00:50:26.958Z,0.00
2019-06-20T00:51:27.016Z,0.00
2019-06-20T00:52:27.097Z,0.00
2019-06-20T00:53:27.119Z,0.00
2019-06-20T00:54:27.193Z,0.00
2019-06-20T00:55:27.161Z,0.00
2019-06-20T00:56:27.234Z,0.00
2019-06-20T00:57:27.265Z,0.00
2019-06-20T00:58:27.333Z,0.00
2019-06-20T00:59:27.378Z,0.00
2019-06-20T01:00:27.434Z,0.00
2019-06-20T01:01:27.460Z,0.00
2019-06-20T01:02:27.485Z,0.00
2019-06-20T01:03:27.543Z,0.00
2019-06-20T01:04:27.588Z,0.00
2019-06-20T01:05:27.626Z,0.00
2019-06-20T01:06:27.814Z,0.00
2019-06-20T01:07:27.771Z,0.00
2019-06-20T01:08:27.841Z,0.00
2019-06-20T01:09:27.837Z,0.00
2019-06-20T01:10:27.840Z,0.00
2019-06-20T01:11:27.963Z,0.00
2019-06-20T01:12:28.044Z,0.00
2019-06-20T01:13:33.688Z,0.00
2019-06-20T01:14:28.061Z,0.00
2019-06-20T01:15:28.142Z,0.00
2019-06-20T01:16:28.103Z,0.00
2019-06-20T01:17:28.304Z,0.00
2019-06-20T01:18:28.343Z,0.00
2019-06-20T01:19:28.296Z,0.00
2019-06-20T01:20:28.293Z,0.00
2019-06-20T01:21:28.414Z,0.00
2019-06-20T01:22:28.437Z,0.00
2019-06-20T01:23:28.560Z,0.00
2019-06-20T01:24:28.640Z,0.00
2019-06-20T01:25:28.499Z,0.00
2019-06-20T01:26:28.537Z,0.00
2019-06-20T01:27:28.643Z,0.00
2019-06-20T01:28:28.720Z,0.00
2019-06-20T01:29:28.686Z,0.00
2019-06-20T01:30:28.776Z,0.00
2019-06-20T01:31:28.779Z,0.00
2019-06-20T01:32:28.848Z,0.00
2019-06-20T01:33:28.906Z,0.00
2019-06-20T01:34:28.894Z,0.00
2019-06-20T01:35:29.007Z,0.00
2019-06-20T01:36:28.982Z,0.00
2019-06-20T01:37:29.028Z,0.00
2019-06-20T01:38:29.124Z,0.00
2019-06-20T01:39:29.121Z,0.00
2019-06-20T01:40:29.139Z,0.00
2019-06-20T01:41:29.192Z,0.00
2019-06-20T01:42:29.305Z,0.00
2019-06-20T01:43:29.326Z,0.00
2019-06-20T01:44:29.340Z,0.00
2019-06-20T01:45:29.386Z,0.00
2019-06-20T01:46:29.437Z,0.00
2019-06-20T01:47:29.489Z,0.00
2019-06-20T01:48:29.520Z,0.00
2019-06-20T01:49:29.553Z,0.00
2019-06-20T01:50:29.590Z,0.00
2019-06-20T01:51:29.615Z,0.00
2019-06-20T01:52:29.686Z,0.00
2019-06-20T01:53:29.729Z,0.00
2019-06-20T01:54:29.825Z,0.00
2019-06-20T01:55:29.824Z,0.00
2019-06-20T01:56:29.882Z,0.00
2019-06-20T01:57:29.909Z,0.00
2019-06-20T01:58:29.933Z,0.00
2019-06-20T01:59:29.981Z,0.00
2019-06-20T02:00:30.022Z,0.00
2019-06-20T02:01:30.109Z,0.00
2019-06-20T02:02:30.191Z,0.00
2019-06-20T02:03:30.160Z,0.00
2019-06-20T02:04:30.212Z,0.00
2019-06-20T02:05:30.364Z,0.00
2019-06-20T02:06:30.302Z,0.00
2019-06-20T02:07:30.397Z,0.00
2019-06-20T02:08:30.360Z,0.00
2019-06-20T02:09:30.451Z,0.00
2019-06-20T02:10:30.466Z,0.00
2019-06-20T02:11:30.523Z,0.00
2019-06-20T02:12:30.561Z,0.00
2019-06-20T02:13:30.599Z,0.00
2019-06-20T02:14:30.618Z,0.00
2019-06-20T02:15:30.681Z,0.00
2019-06-20T02:16:30.732Z,0.00
2019-06-20T02:17:30.763Z,0.00
2019-06-20T02:18:30.826Z,0.00
2019-06-20T02:19:30.854Z,0.00
2019-06-20T02:20:30.911Z,0.00
2019-06-20T02:21:30.952Z,0.00
2019-06-20T02:22:30.987Z,0.00
2019-06-20T02:23:31.028Z,0.00
2019-06-20T02:24:31.075Z,0.00
2019-06-20T02:25:31.117Z,0.00
2019-06-20T02:26:31.161Z,0.00
2019-06-20T02:27:31.226Z,0.00
2019-06-20T02:28:31.257Z,0.00
2019-06-20T02:29:31.295Z,0.00
2019-06-20T02:30:31.342Z,0.00
2019-06-20T02:31:31.384Z,0.00
2019-06-20T02:32:31.422Z,0.00
2019-06-20T02:33:31.473Z,0.00
2019-06-20T02:34:31.521Z,0.00
2019-06-20T02:35:31.545Z,0.00
2019-06-20T02:36:31.583Z,0.00
2019-06-20T02:37:31.653Z,0.00
2019-06-20T02:38:31.676Z,0.00
2019-06-20T02:39:31.721Z,0.00
2019-06-20T02:40:31.764Z,0.00
2019-06-20T02:41:31.818Z,0.00
2019-06-20T02:42:31.882Z,0.00
2019-06-20T02:43:31.922Z,0.00
2019-06-20T02:44:32.054Z,0.00
2019-06-20T02:45:31.998Z,0.00
2019-06-20T02:46:32.042Z,0.00
2019-06-20T02:47:32.066Z,0.00
2019-06-20T02:48:32.117Z,0.00
2019-06-20T02:49:32.161Z,0.00
2019-06-20T02:50:32.207Z,0.00
2019-06-20T02:51:32.249Z,0.00
2019-06-20T02:52:32.281Z,0.00
2019-06-20T02:53:32.321Z,0.00
2019-06-20T02:54:32.392Z,0.00
2019-06-20T02:55:32.436Z,0.00
2019-06-20T02:56:32.475Z,0.00
2019-06-20T02:57:32.507Z,0.00
2019-06-20T02:58:32.564Z,0.00
2019-06-20T02:59:32.601Z,0.00
2019-06-20T03:00:32.637Z,0.00
2019-06-20T03:01:32.677Z,0.00
2019-06-20T03:02:32.726Z,0.00
2019-06-20T03:03:32.801Z,0.00
2019-06-20T03:04:32.803Z,0.00
2019-06-20T03:05:32.840Z,0.00
2019-06-20T03:06:32.899Z,0.00
2019-06-20T03:07:32.939Z,0.00
2019-06-20T03:08:32.992Z,0.00
2019-06-20T03:09:33.024Z,0.00
2019-06-20T03:10:33.067Z,0.00
2019-06-20T03:11:33.135Z,0.00
2019-06-20T03:12:33.169Z,0.00
2019-06-20T03:13:33.199Z,0.00
2019-06-20T03:14:44.931Z,0.00
2019-06-20T03:15:33.305Z,0.00
2019-06-20T03:16:33.309Z,0.00
2019-06-20T03:17:33.354Z,0.00
2019-06-20T03:18:33.478Z,0.00
2019-06-20T03:19:33.471Z,0.00
2019-06-20T03:20:33.504Z,0.00
2019-06-20T03:21:33.548Z,0.00
2019-06-20T03:22:33.584Z,0.00
2019-06-20T03:23:33.638Z,0.00
2019-06-20T03:24:33.669Z,0.00
2019-06-20T03:25:33.721Z,0.00
2019-06-20T03:26:33.766Z,0.00
2019-06-20T03:27:33.783Z,0.00
2019-06-20T03:28:33.858Z,0.00
2019-06-20T03:29:33.915Z,0.00
2019-06-20T03:30:33.954Z,0.00
2019-06-20T03:31:33.992Z,0.00
2019-06-20T03:32:34.017Z,0.00
2019-06-20T03:33:34.060Z,0.00
2019-06-20T03:34:34.100Z,0.00
2019-06-20T03:35:34.163Z,0.00
2019-06-20T03:36:34.181Z,0.00
2019-06-20T03:37:34.229Z,0.00
2019-06-20T03:38:34.277Z,0.00
2019-06-20T03:39:34.323Z,0.00
2019-06-20T03:41:34.399Z,0.00
2019-06-20T03:42:34.449Z,0.00
2019-06-20T03:43:34.524Z,0.00
2019-06-20T03:44:34.550Z,0.00
2019-06-20T03:45:34.568Z,0.00
2019-06-20T03:46:34.632Z,0.00
2019-06-20T03:47:34.663Z,0.00
2019-06-20T03:48:34.749Z,0.00
2019-06-20T03:49:34.770Z,0.00
2019-06-20T03:50:34.799Z,0.00
2019-06-20T03:51:34.845Z,0.00
2019-06-20T03:52:34.885Z,0.00
2019-06-20T03:53:34.925Z,0.00
2019-06-20T03:54:34.967Z,0.00
2019-06-20T03:55:35.008Z,0.00
2019-06-20T03:56:35.028Z,0.00
2019-06-20T03:57:35.083Z,0.00
2019-06-20T03:58:35.137Z,0.00
2019-06-20T03:59:35.170Z,0.00
2019-06-20T04:00:35.217Z,0.00
2019-06-20T04:01:35.289Z,0.00
2019-06-20T04:02:35.295Z,0.00
2019-06-20T04:03:35.366Z,0.00
2019-06-20T04:04:35.391Z,0.00
2019-06-20T04:05:35.436Z,0.00
2019-06-20T04:06:35.481Z,0.00
2019-06-20T04:07:35.514Z,0.00
2019-06-20T04:08:35.556Z,0.00
2019-06-20T04:09:35.617Z,0.00
2019-06-20T04:10:35.644Z,0.00
2019-06-20T04:11:35.714Z,0.00
2019-06-20T04:12:35.743Z,0.00
2019-06-20T04:13:35.769Z,0.00
2019-06-20T04:14:35.825Z,0.00
2019-06-20T04:15:35.865Z,0.00
2019-06-20T04:16:35.933Z,0.00
2019-06-20T04:17:35.945Z,0.00
2019-06-20T04:18:36.009Z,0.00
2019-06-20T04:19:36.050Z,0.00
2019-06-20T04:20:36.072Z,0.00
2019-06-20T04:21:36.127Z,0.00
2019-06-20T04:22:36.163Z,0.00
2019-06-20T04:23:36.204Z,0.00
2019-06-20T04:24:36.250Z,0.00
2019-06-20T04:25:36.315Z,0.00
2019-06-20T04:26:36.331Z,0.00
2019-06-20T04:27:36.378Z,0.00
2019-06-20T04:28:36.440Z,0.00
2019-06-20T04:29:36.474Z,0.00
2019-06-20T04:30:36.529Z,0.00
2019-06-20T04:31:36.547Z,0.00
2019-06-20T04:32:36.608Z,0.00
2019-06-20T04:33:36.648Z,0.00
2019-06-20T04:34:36.688Z,0.00
2019-06-20T04:35:36.731Z,0.00
2019-06-20T04:36:36.754Z,0.00
2019-06-20T04:37:36.811Z,0.00
2019-06-20T04:38:36.860Z,0.00
2019-06-20T04:39:36.922Z,0.00
2019-06-20T04:40:36.938Z,0.00
2019-06-20T04:41:36.980Z,0.00
2019-06-20T04:42:37.025Z,0.00
2019-06-20T04:43:37.062Z,0.00
2019-06-20T04:44:37.115Z,0.00
2019-06-20T04:45:37.140Z,0.00
2019-06-20T04:46:37.202Z,0.00
2019-06-20T04:47:37.223Z,0.00
2019-06-20T04:48:37.348Z,0.00
2019-06-20T04:49:37.323Z,0.00
2019-06-20T04:50:37.361Z,0.00
2019-06-20T04:51:37.408Z,0.00
2019-06-20T04:52:37.480Z,0.00
2019-06-20T04:53:37.481Z,0.00
2019-06-20T04:54:37.537Z,0.00
2019-06-20T04:55:37.604Z,0.00
2019-06-20T04:56:37.630Z,0.00
2019-06-20T04:57:37.662Z,0.00
2019-06-20T04:58:37.905Z,0.00
2019-06-20T04:59:37.741Z,0.00
2019-06-20T05:00:37.814Z,0.00
2019-06-20T05:01:37.841Z,0.00
2019-06-20T05:02:37.887Z,0.00
2019-06-20T05:03:37.912Z,0.00
2019-06-20T05:04:37.966Z,0.00
2019-06-20T05:05:37.986Z,0.00
2019-06-20T05:06:38.052Z,0.00
2019-06-20T05:07:38.103Z,0.00
2019-06-20T05:08:38.112Z,0.00
2019-06-20T05:09:38.167Z,0.00
2019-06-20T05:10:38.235Z,0.00
2019-06-20T05:11:38.264Z,0.00
2019-06-20T05:12:38.309Z,0.00
2019-06-20T05:13:38.355Z,0.00
2019-06-20T05:14:38.367Z,0.00
2019-06-20T05:15:52.111Z,0.00
2019-06-20T05:16:38.460Z,0.00
2019-06-20T05:17:38.511Z,0.00
2019-06-20T05:18:38.564Z,0.00
2019-06-20T05:19:38.583Z,0.00
2019-06-20T05:20:38.632Z,0.00
2019-06-20T05:21:38.701Z,0.00
2019-06-20T05:22:38.740Z,0.00
2019-06-20T05:23:38.784Z,0.00
2019-06-20T05:24:38.813Z,0.00
2019-06-20T05:25:38.838Z,0.00
2019-06-20T05:26:38.902Z,0.00
2019-06-20T05:27:38.948Z,0.00
2019-06-20T05:28:38.986Z,0.00
2019-06-20T05:29:39.014Z,0.00
2019-06-20T05:30:39.112Z,0.00
2019-06-20T05:31:39.099Z,0.00
2019-06-20T05:32:39.184Z,0.00
2019-06-20T05:33:39.200Z,0.00
2019-06-20T05:34:39.229Z,0.00
2019-06-20T05:35:39.335Z,0.00
2019-06-20T05:36:39.326Z,0.00
2019-06-20T05:37:39.408Z,0.00
2019-06-20T05:38:39.401Z,0.00
2019-06-20T05:39:39.431Z,0.00
2019-06-20T05:40:39.492Z,0.00
2019-06-20T05:41:39.531Z,0.00
2019-06-20T05:42:39.563Z,0.00
2019-06-20T05:43:39.626Z,0.00
2019-06-20T05:44:39.649Z,0.00
2019-06-20T05:45:39.719Z,0.00
2019-06-20T05:46:39.769Z,0.00
2019-06-20T05:47:39.789Z,0.00
2019-06-20T05:48:39.876Z,0.00
2019-06-20T05:49:39.871Z,0.00
2019-06-20T05:50:39.918Z,0.00
2019-06-20T05:51:40.015Z,0.00
2019-06-20T05:52:39.989Z,0.00
2019-06-20T05:53:40.029Z,0.00
2019-06-20T05:54:40.096Z,0.00
2019-06-20T05:55:40.131Z,0.00
2019-06-20T05:56:40.176Z,0.00
2019-06-20T05:57:40.256Z,0.00
2019-06-20T05:58:40.242Z,0.00
2019-06-20T05:59:40.291Z,0.00
2019-06-20T06:00:40.348Z,0.00
2019-06-20T06:01:40.371Z,0.00
2019-06-20T06:02:40.406Z,0.00
2019-06-20T06:03:40.492Z,0.00
2019-06-20T06:04:40.509Z,0.00
2019-06-20T06:05:40.547Z,0.00
2019-06-20T06:06:40.609Z,0.00
2019-06-20T06:07:40.609Z,0.00
2019-06-20T06:08:40.697Z,0.00
2019-06-20T06:09:40.768Z,0.00
2019-06-20T06:10:41.341Z,0.00
2019-06-20T06:11:40.794Z,0.00
2019-06-20T06:12:40.936Z,0.00
2019-06-20T06:13:40.880Z,0.00
2019-06-20T06:14:40.921Z,0.00
2019-06-20T06:15:40.983Z,0.00
2019-06-20T06:16:44.096Z,0.00
2019-06-20T06:17:42.111Z,0.00
2019-06-20T06:18:41.105Z,0.00
2019-06-20T06:19:41.165Z,0.00
2019-06-20T06:20:44.654Z,0.00
2019-06-20T06:21:41.237Z,0.00
2019-06-20T06:22:44.545Z,0.00
2019-06-20T06:23:41.302Z,0.00
2019-06-20T06:24:41.338Z,0.00
2019-06-20T06:25:41.388Z,0.00
2019-06-20T06:26:41.438Z,0.00
2019-06-20T06:27:41.478Z,0.00
2019-06-20T06:28:41.518Z,0.00
2019-06-20T06:29:41.548Z,0.00
2019-06-20T06:30:41.611Z,0.00
2019-06-20T06:31:41.694Z,0.00
2019-06-20T06:32:41.698Z,0.00
2019-06-20T06:33:41.740Z,0.00
2019-06-20T06:34:41.772Z,0.00
2019-06-20T06:35:41.886Z,0.00
2019-06-20T06:36:41.870Z,0.00
2019-06-20T06:37:41.879Z,0.00
2019-06-20T06:38:41.976Z,0.00
2019-06-20T06:39:43.528Z,0.00
2019-06-20T06:40:42.046Z,0.00
2019-06-20T06:41:42.066Z,0.00
2019-06-20T06:42:42.127Z,0.00
2019-06-20T06:43:42.371Z,0.00
2019-06-20T06:44:42.192Z,0.00
2019-06-20T06:45:42.244Z,0.00
2019-06-20T06:46:47.076Z,0.00
2019-06-20T06:47:42.327Z,0.00
2019-06-20T06:48:42.381Z,0.00
2019-06-20T06:49:42.410Z,0.00
2019-06-20T06:50:42.437Z,0.00
2019-06-20T06:51:42.530Z,0.00
2019-06-20T06:52:42.512Z,0.00
2019-06-20T06:53:42.583Z,0.00
2019-06-20T06:54:42.622Z,0.00
2019-06-20T06:55:42.640Z,0.00
2019-06-20T06:56:42.762Z,0.00
2019-06-20T06:57:42.833Z,0.00
2019-06-20T06:58:42.787Z,0.00
2019-06-20T06:59:42.824Z,0.00
2019-06-20T07:00:42.863Z,0.00
2019-06-20T07:01:42.884Z,0.00
2019-06-20T07:02:42.975Z,0.00
2019-06-20T07:03:43.017Z,0.00
2019-06-20T07:04:43.057Z,0.00
2019-06-20T07:05:43.100Z,0.00
2019-06-20T07:06:43.121Z,0.00
2019-06-20T07:07:43.173Z,0.00
2019-06-20T07:08:43.204Z,0.00
2019-06-20T07:09:43.261Z,0.00
2019-06-20T07:10:43.277Z,0.00
2019-06-20T07:11:43.314Z,0.00
2019-06-20T07:12:43.370Z,0.00
2019-06-20T07:13:43.402Z,0.00
2019-06-20T07:14:43.456Z,0.00
2019-06-20T07:15:43.511Z,0.00
2019-06-20T07:16:50.864Z,0.00
2019-06-20T07:17:43.610Z,0.00
2019-06-20T07:18:43.613Z,0.00
2019-06-20T07:19:43.652Z,0.00
2019-06-20T07:20:43.704Z,0.00
2019-06-20T07:21:43.772Z,0.00
2019-06-20T07:22:43.782Z,0.00
2019-06-20T07:23:43.883Z,0.00
2019-06-20T07:24:43.867Z,0.00
2019-06-20T07:25:43.904Z,0.00
2019-06-20T07:26:43.974Z,0.00
2019-06-20T07:27:44.015Z,0.00
2019-06-20T07:28:44.065Z,0.00
2019-06-20T07:29:44.094Z,0.00
2019-06-20T07:30:44.146Z,0.00
2019-06-20T07:31:44.158Z,0.00
2019-06-20T07:32:44.224Z,0.00
2019-06-20T07:33:44.266Z,0.00
2019-06-20T07:34:44.305Z,0.00
2019-06-20T07:35:44.327Z,0.00
2019-06-20T07:36:44.382Z,0.00
2019-06-20T07:37:44.395Z,0.00
2019-06-20T07:38:44.443Z,0.00
2019-06-20T07:39:44.493Z,0.00
2019-06-20T07:40:44.556Z,0.00
2019-06-20T07:41:44.578Z,0.00
2019-06-20T07:42:44.639Z,0.00
2019-06-20T07:43:44.685Z,0.00
2019-06-20T07:44:44.718Z,0.00
2019-06-20T07:46:01.209Z,0.00
2019-06-20T07:46:44.807Z,0.00
2019-06-20T07:47:44.943Z,0.00
2019-06-20T07:48:44.892Z,0.00
2019-06-20T07:49:44.920Z,0.00
2019-06-20T07:50:44.977Z,0.00
2019-06-20T07:51:45.017Z,0.00
2019-06-20T07:53:00.949Z,0.00
2019-06-20T07:53:45.122Z,0.00
2019-06-20T07:54:45.119Z,0.00
2019-06-20T07:55:45.180Z,0.00
2019-06-20T07:56:45.209Z,0.00
2019-06-20T07:57:45.247Z,0.00
2019-06-20T07:58:45.315Z,0.00
2019-06-20T07:59:45.323Z,0.00
2019-06-20T08:00:45.396Z,0.00
2019-06-20T08:01:45.415Z,0.00
2019-06-20T08:02:45.464Z,0.00
2019-06-20T08:03:45.532Z,0.00
2019-06-20T08:04:45.541Z,0.00
2019-06-20T08:05:45.621Z,0.00
2019-06-20T08:06:45.635Z,0.00
2019-06-20T08:07:45.674Z,0.00
2019-06-20T08:08:45.742Z,0.00
2019-06-20T08:09:45.760Z,0.00
2019-06-20T08:10:45.821Z,0.00
2019-06-20T08:11:45.830Z,0.00
2019-06-20T08:12:45.871Z,0.00
2019-06-20T08:13:45.936Z,0.00
2019-06-20T08:14:46.002Z,0.00
2019-06-20T08:15:46.009Z,0.00
2019-06-20T08:16:46.050Z,0.00
2019-06-20T08:17:46.092Z,0.00
2019-06-20T08:18:46.137Z,0.00
2019-06-20T08:19:46.261Z,0.00
2019-06-20T08:20:46.215Z,0.00
2019-06-20T08:21:46.301Z,0.00
2019-06-20T08:22:46.295Z,0.00
2019-06-20T08:23:46.334Z,0.00
2019-06-20T08:24:46.386Z,0.00
2019-06-20T08:25:46.426Z,0.00
2019-06-20T08:26:46.464Z,0.00
2019-06-20T08:27:46.505Z,0.00
2019-06-20T08:28:46.569Z,0.00
2019-06-20T08:29:46.584Z,0.00
2019-06-20T08:30:46.638Z,0.00
2019-06-20T08:31:46.727Z,0.00
2019-06-20T08:32:46.714Z,0.00
2019-06-20T08:33:46.750Z,0.00
2019-06-20T08:34:46.812Z,0.00
2019-06-20T08:35:46.841Z,0.00
2019-06-20T08:36:46.886Z,0.00
2019-06-20T08:37:46.937Z,0.00
2019-06-20T08:38:46.955Z,0.00
2019-06-20T08:39:47.013Z,0.00
2019-06-20T08:40:47.050Z,0.00
2019-06-20T08:41:47.143Z,0.00
2019-06-20T08:42:47.136Z,0.00
2019-06-20T08:43:47.163Z,0.00
2019-06-20T08:44:47.217Z,0.00
2019-06-20T08:45:47.250Z,0.00
2019-06-20T08:46:47.297Z,0.00
2019-06-20T08:47:47.340Z,0.00
2019-06-20T08:48:47.372Z,0.00
2019-06-20T08:49:47.431Z,0.00
2019-06-20T08:50:47.475Z,0.00
2019-06-20T08:51:47.500Z,0.00
2019-06-20T08:52:47.542Z,0.00
2019-06-20T08:53:47.587Z,0.00
2019-06-20T08:54:47.626Z,0.00
2019-06-20T08:55:47.682Z,0.00
2019-06-20T08:56:47.709Z,0.00
2019-06-20T08:57:47.748Z,0.00
2019-06-20T08:58:47.818Z,0.00
2019-06-20T08:59:47.887Z,0.00
2019-06-20T09:00:47.881Z,0.00
2019-06-20T09:01:47.937Z,0.00
2019-06-20T09:02:47.975Z,0.00
2019-06-20T09:03:48.005Z,0.00
2019-06-20T09:04:48.063Z,0.00
2019-06-20T09:05:48.087Z,0.00
2019-06-20T09:06:50.128Z,0.00
2019-06-20T09:07:48.169Z,0.00
2019-06-20T09:08:48.207Z,0.00
2019-06-20T09:09:48.254Z,0.00
2019-06-20T09:10:48.288Z,0.00
2019-06-20T09:11:48.337Z,0.00
2019-06-20T09:12:48.402Z,0.00
2019-06-20T09:13:48.438Z,0.00
2019-06-20T09:14:48.494Z,0.00
2019-06-20T09:15:48.490Z,0.00
2019-06-20T09:16:48.585Z,0.00
2019-06-20T09:17:48.589Z,0.00
2019-06-20T09:18:48.666Z,0.00
2019-06-20T09:19:48.685Z,0.00
2019-06-20T09:20:48.715Z,0.00
2019-06-20T09:21:48.729Z,0.00
2019-06-20T09:22:48.806Z,0.00
2019-06-20T09:23:48.849Z,0.00
2019-06-20T09:24:48.889Z,0.00
2019-06-20T09:25:48.918Z,0.00
2019-06-20T09:26:48.955Z,0.00
2019-06-20T09:27:49.010Z,0.00
2019-06-20T09:28:49.079Z,0.00
2019-06-20T09:29:49.096Z,0.00
2019-06-20T09:30:49.139Z,0.00
2019-06-20T09:31:49.180Z,0.00
2019-06-20T09:32:49.219Z,0.00
2019-06-20T09:33:49.302Z,0.00
2019-06-20T09:34:51.342Z,0.00
2019-06-20T09:35:49.341Z,0.00
2019-06-20T09:36:49.384Z,0.00
2019-06-20T09:37:50.873Z,0.00
2019-06-20T09:38:50.609Z,0.00
2019-06-20T09:39:51.549Z,0.00
2019-06-20T09:40:51.344Z,0.00
2019-06-20T09:41:51.089Z,0.00
2019-06-20T09:42:51.155Z,5.63
2019-06-20T09:43:50.081Z,5.63
2019-06-20T09:44:49.857Z,5.63
2019-06-20T09:45:51.059Z,5.63
2019-06-20T09:46:50.800Z,5.63
2019-06-20T09:47:50.962Z,5.63
2019-06-20T09:48:51.050Z,11.25
2019-06-20T09:49:52.378Z,11.25
2019-06-20T09:50:51.702Z,11.25
2019-06-20T09:51:50.383Z,11.25
2019-06-20T09:52:51.355Z,16.88
2019-06-20T09:53:50.074Z,16.88
2019-06-20T09:54:50.204Z,16.88
2019-06-20T09:55:51.654Z,22.50
2019-06-20T09:56:53.063Z,22.50
2019-06-20T09:57:50.837Z,22.50
2019-06-20T09:58:51.177Z,28.13
2019-06-20T10:00:02.819Z,28.13
2019-06-20T10:00:50.878Z,28.13
2019-06-20T10:01:51.453Z,33.75
2019-06-20T10:02:52.119Z,33.75
2019-06-20T10:03:50.603Z,33.75
2019-06-20T10:04:50.723Z,39.38
2019-06-20T10:05:50.731Z,39.38
2019-06-20T10:06:50.632Z,45.00
2019-06-20T10:07:50.659Z,45.00
2019-06-20T10:08:52.272Z,45.00
2019-06-20T10:09:52.051Z,50.63
2019-06-20T10:10:52.324Z,50.63
2019-06-20T10:11:51.924Z,56.25
2019-06-20T10:12:51.813Z,56.25
2019-06-20T10:13:52.222Z,56.25
2019-06-20T10:14:51.577Z,61.88
2019-06-20T10:15:51.490Z,61.88
2019-06-20T10:16:53.492Z,61.88
2019-06-20T10:17:51.105Z,67.50
2019-06-20T10:18:52.124Z,67.50
2019-06-20T10:19:52.048Z,67.50
2019-06-20T10:20:51.243Z,73.13
2019-06-20T10:21:51.937Z,73.13
2019-06-20T10:22:51.296Z,73.13
2019-06-20T10:23:51.963Z,73.13
2019-06-20T10:24:51.432Z,78.75
2019-06-20T10:25:51.572Z,78.75
2019-06-20T10:26:51.576Z,78.75
2019-06-20T10:27:51.572Z,78.75
2019-06-20T10:28:51.535Z,78.75
2019-06-20T10:29:51.606Z,78.75
2019-06-20T10:30:51.632Z,84.38
2019-06-20T10:31:53.052Z,84.38
2019-06-20T10:32:53.073Z,84.38
2019-06-20T10:33:52.537Z,90.00
2019-06-20T10:34:52.728Z,90.00
2019-06-20T10:35:52.643Z,95.63
2019-06-20T10:36:52.432Z,101.25
2019-06-20T10:37:52.965Z,106.88
2019-06-20T10:38:52.646Z,112.50
2019-06-20T10:39:52.161Z,112.50
2019-06-20T10:40:52.112Z,112.50
2019-06-20T10:41:52.339Z,112.50
2019-06-20T10:42:52.956Z,118.13
2019-06-20T10:43:52.281Z,118.13
2019-06-20T10:44:52.277Z,118.13
2019-06-20T10:45:52.594Z,123.75
2019-06-20T10:46:52.295Z,123.75
2019-06-20T10:47:52.931Z,123.75
2019-06-20T10:48:52.702Z,129.38
2019-06-20T10:49:52.424Z,129.38
2019-06-20T10:50:52.465Z,129.38
2019-06-20T10:51:52.514Z,135.00
2019-06-20T10:52:52.606Z,135.00
2019-06-20T10:53:53.400Z,140.63
2019-06-20T10:54:52.659Z,151.88
2019-06-20T10:55:52.689Z,157.50
2019-06-20T10:56:52.739Z,191.25
2019-06-20T10:57:52.778Z,309.38
2019-06-20T10:58:52.828Z,438.75
2019-06-20T10:59:52.872Z,545.63
2019-06-20T11:00:52.904Z,579.38
2019-06-20T11:01:52.956Z,579.38
2019-06-20T11:02:52.983Z,573.75
2019-06-20T11:03:53.047Z,585.00
2019-06-20T11:04:53.082Z,585.00
2019-06-20T11:05:53.127Z,596.25
2019-06-20T11:06:53.207Z,635.63
2019-06-20T11:07:53.202Z,658.13
2019-06-20T11:08:53.247Z,658.13
2019-06-20T11:09:53.292Z,669.38
2019-06-20T11:10:53.356Z,669.38
2019-06-20T11:11:53.394Z,663.75
2019-06-20T11:12:55.949Z,680.63
2019-06-20T11:13:53.478Z,703.13
2019-06-20T11:14:53.584Z,720.00
2019-06-20T11:15:53.579Z,736.88
2019-06-20T11:16:53.632Z,736.88
2019-06-20T11:17:56.440Z,748.13
2019-06-20T11:18:53.714Z,759.38
2019-06-20T11:19:53.762Z,765.00
2019-06-20T11:20:53.807Z,770.63
2019-06-20T11:21:53.846Z,787.50
2019-06-20T11:22:53.895Z,793.13
2019-06-20T11:23:53.923Z,815.63
2019-06-20T11:24:53.998Z,838.13
2019-06-20T11:25:54.045Z,821.25
2019-06-20T11:26:54.114Z,832.50
2019-06-20T11:27:54.152Z,826.88
2019-06-20T11:28:54.203Z,804.38
2019-06-20T11:29:54.240Z,849.38
2019-06-20T11:31:00.104Z,871.88
2019-06-20T11:31:54.337Z,860.63
2019-06-20T11:32:54.407Z,871.88
2019-06-20T11:33:54.449Z,871.88
2019-06-20T11:34:54.482Z,877.50
2019-06-20T11:35:54.539Z,900.00
2019-06-20T11:36:54.564Z,905.63
2019-06-20T11:37:54.640Z,888.75
2019-06-20T11:38:54.697Z,888.75
2019-06-20T11:39:54.728Z,933.75
2019-06-20T11:40:54.779Z,950.63
2019-06-20T11:41:54.874Z,922.50
2019-06-20T11:42:54.886Z,905.63
2019-06-20T11:43:54.951Z,933.75
2019-06-20T11:44:54.990Z,950.63
2019-06-20T11:45:55.044Z,928.13
2019-06-20T11:46:55.089Z,939.38
2019-06-20T11:47:55.137Z,956.25
2019-06-20T11:48:55.193Z,961.88
2019-06-20T11:49:55.253Z,956.25
2019-06-20T11:50:55.280Z,956.25
2019-06-20T11:51:55.341Z,978.75
2019-06-20T11:52:55.506Z,1006.88
2019-06-20T11:53:55.431Z,1012.50
2019-06-20T11:54:55.503Z,1006.88
2019-06-20T11:55:55.541Z,1012.50
2019-06-20T11:56:55.601Z,990.00
2019-06-20T11:57:55.660Z,956.25
2019-06-20T11:58:55.741Z,990.00
2019-06-20T11:59:55.760Z,1040.63
2019-06-20T12:01:03.509Z,1068.75
2019-06-20T12:01:55.864Z,1080.00
2019-06-20T12:02:55.918Z,1063.13
2019-06-20T12:03:55.968Z,1046.25
2019-06-20T12:04:56.013Z,1046.25
2019-06-20T12:05:56.066Z,1085.63
2019-06-20T12:06:56.143Z,1085.63
2019-06-20T12:07:56.186Z,1096.88
2019-06-20T12:08:56.237Z,1091.25
2019-06-20T12:09:56.275Z,1057.50
2019-06-20T12:10:56.369Z,1108.13
2019-06-20T12:11:56.404Z,1130.63
2019-06-20T12:12:56.426Z,1119.38
2019-06-20T12:13:56.591Z,1113.75
2019-06-20T12:14:56.533Z,1102.50
2019-06-20T12:15:56.604Z,1125.00
2019-06-20T12:16:56.655Z,1119.38
2019-06-20T12:17:56.709Z,1102.50
2019-06-20T12:18:56.760Z,1153.13
2019-06-20T12:19:56.817Z,1158.75
2019-06-20T12:20:56.850Z,1147.50
2019-06-20T12:21:56.915Z,1153.13
2019-06-20T12:22:56.984Z,1147.50
2019-06-20T12:23:57.021Z,1125.00
2019-06-20T12:24:57.070Z,1113.75
2019-06-20T12:25:57.129Z,1125.00
2019-06-20T12:26:57.186Z,1130.63
2019-06-20T12:27:57.244Z,1164.38
2019-06-20T12:28:57.291Z,1175.63
2019-06-20T12:29:57.355Z,1181.25
2019-06-20T12:30:57.420Z,1181.25
2019-06-20T12:31:59.063Z,1153.13
2019-06-20T12:32:57.510Z,1170.00
2019-06-20T12:33:57.542Z,1181.25
2019-06-20T12:34:57.589Z,1198.13
2019-06-20T12:35:57.642Z,1175.63
2019-06-20T12:36:57.719Z,1164.38
2019-06-20T12:37:57.763Z,1186.88
2019-06-20T12:38:57.824Z,1181.25
2019-06-20T12:39:57.865Z,1215.00
2019-06-20T12:40:57.915Z,1220.63
2019-06-20T12:41:57.996Z,1192.50
2019-06-20T12:42:58.050Z,1170.00
2019-06-20T12:43:58.091Z,1220.63
2019-06-20T12:44:58.145Z,1226.25
2019-06-20T12:45:58.189Z,1243.13
2019-06-20T12:46:58.254Z,1248.75
2019-06-20T12:47:58.309Z,1282.50
2019-06-20T12:48:58.397Z,1299.38
2019-06-20T12:49:58.405Z,1327.50
2019-06-20T12:50:58.509Z,1276.88
2019-06-20T12:51:58.525Z,1248.75
2019-06-20T12:52:58.574Z,1271.25
2019-06-20T12:53:58.654Z,658.13
2019-06-20T12:54:58.705Z,1288.13
2019-06-20T12:55:58.732Z,1271.25
2019-06-20T12:56:58.789Z,1276.88
2019-06-20T12:57:58.859Z,1305.00
2019-06-20T12:58:58.899Z,1316.25
2019-06-20T12:59:58.970Z,1293.75
2019-06-20T13:00:59.019Z,1282.50
2019-06-20T13:01:59.074Z,1265.63
2019-06-20T13:02:59.136Z,1299.38
2019-06-20T13:03:59.217Z,1316.25
2019-06-20T13:04:59.232Z,1293.75
2019-06-20T13:05:59.303Z,1293.75